| Date | Time | Temp. (oF) | Dew Point (oF) | Rel. Hum. (%) | Press. (in.) | Wind Dir. | Wind Speed (mph) | Hourly Rainfall (in.) |
|
|---|---|---|---|---|---|---|---|---|---|
| 1 | 11/01 | 00:00 | 56 | 48 | 77 | 29.93 | N | 4 | 0.00 |
| 2 | 10/31 | 23:00 | 57 | 49 | 77 | 29.93 | NW | 4 | 0.00 |
| 3 | 10/31 | 22:00 | 57 | 53 | 87 | 29.92 | NNW | 0 | 0.00 |
| 4 | 10/31 | 21:00 | 59 | 57 | 95 | 29.89 | NNW | 0 | 0.00 |
| 5 | 10/31 | 20:00 | 59 | 58 | 97 | 29.85 | NW | 0 | 0.00 |
| 6 | 10/31 | 19:00 | 60 | 58 | 95 | 29.84 | WNW | 13 | 0.06 |
| 7 | 10/31 | 18:00 | 68 | 65 | 92 | 29.77 | SSW | 6 | 0.00 |
| 8 | 10/31 | 17:00 | 68 | 65 | 91 | 29.74 | SW | 5 | 0.00 |
| 9 | 10/31 | 16:00 | 67 | 64 | 93 | 29.75 | SSW | 13 | 0.00 |
| 10 | 10/31 | 15:00 | 65 | 63 | 94 | 29.76 | SW | 15 | 0.00 |
| 11 | 10/31 | 14:00 | 66 | 63 | 92 | 29.76 | S | 13 | 0.00 |
| 12 | 10/31 | 13:00 | 65 | 62 | 92 | 29.79 | SSW | 13 | 0.00 |
| 13 | 10/31 | 12:00 | 66 | 62 | 89 | 29.81 | SSW | 12 | 0.00 |
| 14 | 10/31 | 11:00 | 65 | 62 | 91 | 29.83 | SSE | 10 | 0.00 |
| 15 | 10/31 | 10:00 | 62 | 60 | 94 | 29.87 | WSW | 10 | 0.00 |
| 16 | 10/31 | 09:00 | 60 | 58 | 96 | 29.88 | S | 14 | 0.00 |
| 17 | 10/31 | 08:00 | 60 | 59 | 97 | 29.90 | S | 10 | 0.00 |
| 18 | 10/31 | 07:00 | 59 | 58 | 98 | 29.92 | SW | 7 | 0.00 |
| 19 | 10/31 | 06:00 | 58 | 58 | 100 | 29.92 | SSE | 11 | 0.00 |
| 20 | 10/31 | 05:00 | 57 | 57 | 100 | 29.94 | S | 0 | 0.00 |
| 21 | 10/31 | 04:00 | 56 | 55 | 100 | 29.96 | SSW | 0 | 0.00 |
| 22 | 10/31 | 03:00 | 55 | 54 | 100 | 29.99 | SSW | 0 | 0.01 |
| 23 | 10/31 | 02:00 | 55 | 54 | 100 | 30.01 | S | 0 | 0.00 |
| 24 | 10/31 | 01:00 | 54 | 54 | 100 | 30.03 | SSE | 0 | 0.01 |